Time;durP1;ratioP1;P1;durP2;ratioP2;P2;SDS_P1;SDS_P2;PMS_P1;PMS_P2;Temp;Humidity;BMP_temperature;BMP_pressure;BME280_temperature;BME280_humidity;BME280_pressure;Samples;Min_cycle;Max_cycle;Signal;HPM_P1;HPM_P2
2022/09/27 00:00:41;;;;;;;11.02;6.55;;;18.60;99.90;;;;;;5046242;28;20216;-80
2022/09/27 00:03:14;;;;;;;7.88;5.72;;;18.80;99.90;;;;;;5048959;28;20540;-79
2022/09/27 00:05:45;;;;;;;5.28;4.35;;;19.00;99.90;;;;;;5045538;28;20228;-79
2022/09/27 00:08:15;;;;;;;7.63;4.88;;;19.10;99.90;;;;;;5043985;28;20209;-80
2022/09/27 00:10:46;;;;;;;6.90;4.78;;;19.30;99.90;;;;;;5031247;28;20207;-79
2022/09/27 00:13:17;;;;;;;6.28;4.65;;;19.60;99.90;;;;;;5030496;28;20197;-79
2022/09/27 00:15:48;;;;;;;5.85;4.13;;;19.90;99.90;;;;;;5033160;28;20197;-79
2022/09/27 00:18:20;;;;;;;5.53;3.80;;;19.80;99.90;;;;;;5045875;28;20218;-79
2022/09/27 00:20:51;;;;;;;5.30;3.75;;;19.90;99.90;;;;;;5047062;28;20200;-79
2022/09/27 00:23:22;;;;;;;3.95;3.45;;;20.00;99.90;;;;;;5048599;28;20200;-80
2022/09/27 00:26:00;;;;;;;5.38;3.60;;;20.10;99.90;;;;;;5038081;28;20595;-79
2022/09/27 00:28:31;;;;;;;5.78;3.75;;;20.20;99.90;;;;;;5043204;28;20208;-80
2022/09/27 00:31:02;;;;;;;4.95;3.42;;;20.30;99.90;;;;;;5042801;28;20235;-79
2022/09/27 00:33:35;;;;;;;6.38;3.20;;;20.30;99.90;;;;;;5050460;28;20611;-79
2022/09/27 00:36:09;;;;;;;4.18;3.10;;;20.40;99.90;;;;;;5050341;28;20196;-79
2022/09/27 00:38:39;;;;;;;3.03;2.50;;;20.40;99.90;;;;;;5050460;28;20193;-79
2022/09/27 00:41:15;;;;;;;3.25;2.10;;;20.40;99.90;;;;;;5050535;28;20207;-79
2022/09/27 00:43:51;;;;;;;3.30;2.17;;;20.40;99.90;;;;;;5039651;28;20230;-79
2022/09/27 00:46:28;;;;;;;2.08;1.80;;;20.50;99.90;;;;;;5046004;28;20706;-79
2022/09/27 00:49:09;;;;;;;1.77;1.60;;;20.30;99.90;;;;;;5040916;28;20193;-78
2022/09/27 00:51:42;;;;;;;1.67;1.50;;;20.30;99.90;;;;;;5043377;28;20212;-78
2022/09/27 00:54:16;;;;;;;2.28;1.70;;;20.40;99.90;;;;;;5052571;28;20594;-78
2022/09/27 00:56:47;;;;;;;2.20;1.67;;;20.50;99.90;;;;;;5049670;28;20204;-78
2022/09/27 00:59:22;;;;;;;2.08;1.63;;;20.50;99.90;;;;;;5035299;28;20204;-78
2022/09/27 01:01:53;;;;;;;5.57;3.30;;;20.70;99.90;;;;;;5031901;28;20679;-79
2022/09/27 01:04:28;;;;;;;4.03;2.80;;;20.70;99.90;;;;;;5034116;28;20276;-80
2022/09/27 01:06:59;;;;;;;5.75;3.10;;;20.90;99.90;;;;;;5040060;28;20204;-79
2022/09/27 01:09:30;;;;;;;4.20;2.58;;;21.00;99.90;;;;;;5057680;28;20216;-79
2022/09/27 01:12:11;;;;;;;4.45;2.67;;;20.80;99.90;;;;;;5052788;28;20561;-79
2022/09/27 01:14:54;;;;;;;3.80;2.80;;;20.80;99.90;;;;;;5044007;28;20276;-79
2022/09/27 01:17:37;;;;;;;3.85;2.45;;;21.00;99.90;;;;;;5047569;28;20276;-80
2022/09/27 01:20:41;;;;;;;4.35;2.55;;;21.00;99.90;;;;;;5046549;28;20189;-79
2022/09/27 01:23:38;;;;;;;3.50;2.78;;;21.10;99.90;;;;;;5017936;28;20574;-78
2022/09/27 01:26:17;;;;;;;5.50;2.70;;;21.20;99.90;;;;;;5025814;28;20225;-79
2022/09/27 01:28:58;;;;;;;3.70;2.95;;;21.20;99.90;;;;;;5050749;28;20213;-78
2022/09/27 01:31:38;;;;;;;4.93;2.88;;;21.30;99.90;;;;;;5066878;28;20632;-78
2022/09/27 01:34:14;;;;;;;4.45;2.38;;;21.50;99.90;;;;;;5046764;28;20215;-79
2022/09/27 01:36:50;;;;;;;4.53;2.70;;;21.60;99.90;;;;;;5044529;28;20204;-79
2022/09/27 01:39:32;;;;;;;2.58;2.10;;;21.80;99.90;;;;;;5046295;28;20544;-77
2022/09/27 01:42:12;;;;;;;6.60;2.53;;;22.00;99.90;;;;;;5032049;28;20205;-79
2022/09/27 01:44:47;;;;;;;4.38;2.50;;;22.10;99.90;;;;;;5046755;28;20207;-79
2022/09/27 01:47:23;;;;;;;5.13;2.30;;;22.10;99.90;;;;;;5050224;28;20203;-79
2022/09/27 01:49:59;;;;;;;5.10;2.47;;;22.20;99.90;;;;;;5045062;28;20227;-79
2022/09/27 01:52:36;;;;;;;5.25;2.20;;;22.30;99.90;;;;;;5042783;28;20193;-79
2022/09/27 01:55:12;;;;;;;3.63;2.47;;;22.50;99.90;;;;;;5034497;28;20192;-79
2022/09/27 01:57:45;;;;;;;2.70;2.17;;;22.70;99.90;;;;;;5060160;28;20225;-79
2022/09/27 02:00:16;;;;;;;3.35;2.10;;;22.60;99.90;;;;;;5044331;28;20285;-78
2022/09/27 02:02:53;;;;;;;2.15;1.92;;;22.80;99.90;;;;;;5029936;28;20284;-79
2022/09/27 02:05:27;;;;;;;1.80;1.60;;;23.10;99.90;;;;;;5034849;28;20223;-78
2022/09/27 02:08:04;;;;;;;3.15;1.77;;;23.10;99.90;;;;;;5035404;28;20674;-78
2022/09/27 02:10:41;;;;;;;2.70;1.90;;;23.20;99.90;;;;;;5045795;28;20225;-76
2022/09/27 02:13:21;;;;;;;2.42;1.70;;;23.40;99.90;;;;;;5039248;28;20227;-79
2022/09/27 02:15:59;;;;;;;3.15;1.98;;;23.50;99.90;;;;;;5047018;28;20227;-79
2022/09/27 02:18:41;;;;;;;5.20;1.90;;;23.60;99.90;;;;;;5054770;28;20197;-79
2022/09/27 02:21:16;;;;;;;3.83;2.00;;;23.40;99.90;;;;;;5048973;28;20212;-79
2022/09/27 02:23:54;;;;;;;4.60;2.25;;;23.50;99.90;;;;;;5047842;28;20227;-79
2022/09/27 02:26:29;;;;;;;3.00;2.05;;;23.30;99.90;;;;;;5049934;28;20234;-79
2022/09/27 02:29:02;;;;;;;3.70;2.08;;;23.30;99.90;;;;;;5052631;28;20663;-78
2022/09/27 02:31:33;;;;;;;6.70;2.70;;;23.40;99.90;;;;;;5058114;28;20192;-78
2022/09/27 02:34:11;;;;;;;3.30;2.50;;;23.40;99.90;;;;;;5048914;28;20204;-78
2022/09/27 02:36:43;;;;;;;5.78;2.70;;;23.60;99.90;;;;;;5064270;28;20208;-79
2022/09/27 02:39:15;;;;;;;5.13;2.40;;;23.70;99.90;;;;;;5064579;28;20315;-78
2022/09/27 02:41:46;;;;;;;8.93;2.65;;;23.70;99.90;;;;;;5056860;28;20284;-78
2022/09/27 02:44:20;;;;;;;4.53;2.80;;;23.70;99.90;;;;;;5057177;28;20197;-79
2022/09/27 02:47:21;;;;;;;6.90;2.92;;;23.70;99.90;;;;;;5065555;28;20231;-79
2022/09/27 02:50:11;;;;;;;5.35;2.75;;;23.40;99.90;;;;;;5047480;28;20219;-79
2022/09/27 02:52:51;;;;;;;4.95;3.20;;;23.30;99.90;;;;;;5043754;28;20230;-79
2022/09/27 02:55:31;;;;;;;6.30;2.67;;;23.00;99.90;;;;;;5047094;28;20201;-79
2022/09/27 02:58:11;;;;;;;8.75;3.10;;;22.90;99.90;;;;;;5057680;28;20217;-79
2022/09/27 03:00:50;;;;;;;4.80;2.65;;;22.90;99.90;;;;;;5050455;28;20201;-79
2022/09/27 03:03:28;;;;;;;6.10;3.15;;;23.00;99.90;;;;;;5067532;28;20189;-78
2022/09/27 03:06:07;;;;;;;3.67;2.65;;;23.20;99.90;;;;;;5053751;28;20224;-79
2022/09/27 03:08:41;;;;;;;3.38;2.70;;;23.20;99.90;;;;;;5061838;28;20208;-80
2022/09/27 03:11:12;;;;;;;5.05;2.53;;;23.50;99.90;;;;;;5046304;28;20201;-79
2022/09/27 03:13:43;;;;;;;2.90;2.30;;;23.70;99.90;;;;;;5054860;28;20204;-78
2022/09/27 03:16:15;;;;;;;4.07;2.67;;;24.10;99.90;;;;;;5051681;28;20193;-79
2022/09/27 03:18:47;;;;;;;3.83;2.70;;;24.40;99.90;;;;;;5065471;28;20318;-79
2022/09/27 03:21:22;;;;;;;5.03;2.95;;;24.50;99.90;;;;;;5060579;28;20200;-79
2022/09/27 03:23:52;;;;;;;4.00;2.47;;;24.50;99.90;;;;;;5052526;28;20655;-78
2022/09/27 03:26:23;;;;;;;4.28;2.72;;;24.40;99.90;;;;;;5047666;28;20230;-79
2022/09/27 03:28:54;;;;;;;4.07;2.10;;;24.10;99.90;;;;;;5051888;28;20707;-79
2022/09/27 03:31:25;;;;;;;7.22;2.75;;;24.00;99.90;;;;;;5042035;28;20288;-80
2022/09/27 03:33:56;;;;;;;4.50;2.50;;;24.00;99.90;;;;;;5047661;28;20239;-78
2022/09/27 03:36:29;;;;;;;4.82;2.90;;;23.90;99.90;;;;;;5069644;28;20237;-78
2022/09/27 03:39:00;;;;;;;3.72;2.47;;;23.80;99.90;;;;;;5062352;28;20200;-78
2022/09/27 03:41:32;;;;;;;3.25;2.58;;;23.90;99.90;;;;;;5040085;28;20220;-79
2022/09/27 03:44:03;;;;;;;7.30;2.58;;;24.00;99.90;;;;;;5040092;28;20209;-79
2022/09/27 03:46:34;;;;;;;4.18;2.13;;;24.10;99.90;;;;;;5045930;28;20247;-79
2022/09/27 03:49:05;;;;;;;3.58;2.08;;;23.90;99.90;;;;;;5051708;28;20204;-79
2022/09/27 03:51:37;;;;;;;3.03;1.98;;;23.70;99.90;;;;;;5041220;28;20514;-79
2022/09/27 03:54:08;;;;;;;2.28;1.90;;;23.30;99.90;;;;;;5034860;28;20229;-79
2022/09/27 03:56:39;;;;;;;3.33;2.10;;;23.20;99.90;;;;;;5035969;28;20233;-80
2022/09/27 03:59:10;;;;;;;3.15;2.00;;;23.10;99.90;;;;;;5040038;28;20201;-79
2022/09/27 04:01:41;;;;;;;2.75;1.80;;;23.10;99.90;;;;;;5043014;28;20711;-80
2022/09/27 04:04:12;;;;;;;3.08;1.73;;;23.10;99.90;;;;;;5031922;28;20288;-81
2022/09/27 04:06:45;;;;;;;2.75;1.85;;;23.10;99.90;;;;;;5042765;28;20228;-80
2022/09/27 04:09:16;;;;;;;2.33;1.83;;;23.10;99.90;;;;;;5050013;28;20242;-80
2022/09/27 04:11:47;;;;;;;1.70;1.50;;;23.30;99.90;;;;;;5043053;28;20719;-80
2022/09/27 04:14:22;;;;;;;2.33;1.50;;;23.40;99.90;;;;;;5040049;28;20193;-80
2022/09/27 04:17:01;;;;;;;2.33;1.77;;;23.70;99.90;;;;;;5046532;28;20216;-81
2022/09/27 04:19:32;;;;;;;3.10;1.77;;;23.70;99.90;;;;;;5047151;28;20266;-82
2022/09/27 04:22:05;;;;;;;3.80;2.08;;;23.60;99.90;;;;;;5049530;28;20193;-81
2022/09/27 04:24:36;;;;;;;2.95;1.67;;;23.50;99.90;;;;;;5034769;28;20193;-81
2022/09/27 04:27:10;;;;;;;2.85;1.75;;;23.20;99.90;;;;;;5040372;28;20224;-82
2022/09/27 04:29:45;;;;;;;1.83;1.60;;;23.10;99.90;;;;;;5041706;28;20197;-81
2022/09/27 04:32:16;;;;;;;4.97;1.83;;;22.80;99.90;;;;;;5049802;28;20196;-81
2022/09/27 04:37:42;;;;;;;3.45;1.70;;;22.60;99.90;;;;;;5043506;28;20199;-83
2022/09/27 04:40:16;;;;;;;3.03;1.65;;;22.80;99.90;;;;;;5040712;28;20604;-83
2022/09/27 04:42:48;;;;;;;3.15;1.77;;;22.80;99.90;;;;;;5036552;28;20231;-81
2022/09/27 04:45:19;;;;;;;2.17;1.52;;;23.00;99.90;;;;;;5034498;28;20284;-82
2022/09/27 04:47:51;;;;;;;3.00;1.73;;;23.20;99.90;;;;;;5051394;28;20580;-83
2022/09/27 04:50:24;;;;;;;2.78;1.42;;;23.30;99.90;;;;;;5054378;28;20197;-82
2022/09/27 04:52:58;;;;;;;1.45;1.35;;;23.50;99.90;;;;;;5038539;28;20200;-82
2022/09/27 04:55:29;;;;;;;2.53;1.50;;;23.60;99.90;;;;;;5053129;28;20279;-82
2022/09/27 04:58:00;;;;;;;2.30;1.60;;;23.60;99.90;;;;;;5050637;28;20207;-83
2022/09/27 05:00:31;;;;;;;4.00;1.70;;;23.60;99.90;;;;;;5038817;28;20208;-83
2022/09/27 05:03:02;;;;;;;3.67;1.70;;;23.60;99.90;;;;;;5034622;28;20228;-82
2022/09/27 05:05:33;;;;;;;2.47;1.70;;;23.50;99.90;;;;;;5041489;28;20193;-81
2022/09/27 05:08:08;;;;;;;3.63;1.60;;;23.40;99.90;;;;;;5043038;28;20220;-81
2022/09/27 05:10:40;;;;;;;1.95;1.60;;;23.10;99.90;;;;;;5059335;28;20223;-79
2022/09/27 05:13:11;;;;;;;2.47;1.50;;;22.80;99.90;;;;;;5061509;28;20228;-79
2022/09/27 05:15:53;;;;;;;4.97;1.83;;;22.50;99.90;;;;;;5056040;28;20247;-79
2022/09/27 05:18:29;;;;;;;3.67;1.42;;;22.40;99.90;;;;;;5064726;28;20285;-79
2022/09/27 05:21:02;;;;;;;3.50;1.70;;;22.20;99.90;;;;;;5066508;28;20189;-79
2022/09/27 05:24:02;;;;;;;2.70;1.50;;;22.00;99.90;;;;;;5068181;28;20202;-82
2022/09/27 05:26:56;;;;;;;2.70;1.50;;;21.90;99.90;;;;;;5067683;28;20216;-83
2022/09/27 05:29:48;;;;;;;4.10;1.40;;;21.90;99.90;;;;;;5060751;28;20208;-80
2022/09/27 05:32:27;;;;;;;3.63;1.60;;;21.90;99.90;;;;;;5061007;28;20284;-80
2022/09/27 05:35:01;;;;;;;1.45;1.30;;;21.90;99.90;;;;;;5064345;28;20539;-80
2022/09/27 05:37:33;;;;;;;3.03;1.60;;;22.10;99.90;;;;;;5049764;28;20711;-81
2022/09/27 05:40:07;;;;;;;2.08;1.33;;;22.50;99.90;;;;;;5062622;28;20218;-79
2022/09/27 05:42:40;;;;;;;2.03;1.38;;;22.60;99.90;;;;;;5045805;28;20205;-79
2022/09/27 05:45:11;;;;;;;5.97;1.60;;;22.50;99.90;;;;;;5043340;28;20221;-79
2022/09/27 05:48:03;;;;;;;1.83;1.40;;;22.40;99.90;;;;;;5059052;28;20228;-82
2022/09/27 05:50:34;;;;;;;3.28;1.50;;;22.20;99.90;;;;;;5056196;28;20204;-79
2022/09/27 05:53:06;;;;;;;2.90;1.70;;;22.10;99.90;;;;;;5037784;28;20319;-79
2022/09/27 05:55:39;;;;;;;2.67;1.50;;;21.90;99.90;;;;;;5036999;28;20664;-80
2022/09/27 05:58:14;;;;;;;4.40;1.67;;;21.70;99.90;;;;;;5052918;28;20193;-79
2022/09/27 06:00:45;;;;;;;2.03;1.75;;;21.70;99.90;;;;;;5043894;28;20192;-79
2022/09/27 06:03:17;;;;;;;4.85;1.63;;;21.60;99.90;;;;;;5041762;28;20197;-78
2022/09/27 06:05:49;;;;;;;6.05;2.00;;;21.50;99.90;;;;;;5035935;28;20201;-79
2022/09/27 06:08:20;;;;;;;5.78;2.00;;;21.40;99.90;;;;;;5039404;28;20232;-79
2022/09/27 06:11:02;;;;;;;4.10;2.08;;;21.30;99.90;;;;;;5053622;28;20545;-79
2022/09/27 06:13:35;;;;;;;2.50;1.70;;;21.30;99.90;;;;;;5051561;28;20203;-78
2022/09/27 06:16:06;;;;;;;2.88;1.80;;;21.20;99.90;;;;;;5052567;28;20193;-78
2022/09/27 06:18:37;;;;;;;4.00;1.58;;;21.20;99.90;;;;;;5040904;28;20203;-79
2022/09/27 06:21:08;;;;;;;2.10;1.60;;;21.10;99.90;;;;;;5047440;28;20205;-79
2022/09/27 06:23:39;;;;;;;3.45;1.63;;;21.00;99.90;;;;;;5037247;28;20197;-78
2022/09/27 06:26:12;;;;;;;3.10;1.55;;;20.90;99.90;;;;;;5035301;28;20197;-78
2022/09/27 06:28:44;;;;;;;3.15;1.50;;;20.90;99.90;;;;;;5038447;28;20212;-78
2022/09/27 06:31:15;;;;;;;3.22;1.50;;;20.80;99.90;;;;;;5052611;28;20656;-78
2022/09/27 06:33:46;;;;;;;3.63;1.50;;;20.70;99.90;;;;;;5039563;28;20247;-79
2022/09/27 06:36:17;;;;;;;1.67;1.40;;;20.60;99.90;;;;;;5041822;28;20243;-79
2022/09/27 06:38:48;;;;;;;2.22;1.30;;;20.50;99.90;;;;;;5053869;28;20239;-79
2022/09/27 06:41:20;;;;;;;5.25;1.40;;;20.40;99.90;;;;;;5052508;28;20208;-79
2022/09/27 06:43:52;;;;;;;4.75;1.73;;;20.40;99.90;;;;;;5036123;28;20194;-79
2022/09/27 06:46:22;;;;;;;2.25;1.40;;;20.30;99.90;;;;;;5047009;28;20264;-78
2022/09/27 06:48:53;;;;;;;2.03;1.50;;;20.30;99.90;;;;;;5035378;28;20193;-79
2022/09/27 06:51:24;;;;;;;5.57;1.45;;;20.30;99.90;;;;;;5032895;28;20224;-79
2022/09/27 06:53:55;;;;;;;5.50;1.73;;;20.20;99.90;;;;;;5038573;28;20300;-79
2022/09/27 06:56:28;;;;;;;2.67;1.30;;;20.20;99.90;;;;;;5050647;28;20197;-79
2022/09/27 07:01:46;;;;;;;3.80;1.50;;;20.10;99.90;;;;;;5050325;28;20211;-79
2022/09/27 07:04:17;;;;;;;5.47;1.33;;;20.10;99.90;;;;;;5050617;28;20220;-79
2022/09/27 07:06:48;;;;;;;2.15;1.27;;;20.00;99.90;;;;;;5038715;28;20599;-78
2022/09/27 07:09:19;;;;;;;3.17;1.45;;;20.00;99.90;;;;;;5045188;28;20194;-79
2022/09/27 07:11:53;;;;;;;4.10;1.13;;;19.90;99.90;;;;;;5041401;28;20207;-79
2022/09/27 07:14:25;;;;;;;3.55;1.30;;;20.00;99.90;;;;;;5066637;28;20230;-79
2022/09/27 07:16:56;;;;;;;5.65;1.40;;;19.90;99.90;;;;;;5049914;28;20197;-79
2022/09/27 07:19:27;;;;;;;2.92;1.40;;;19.90;99.90;;;;;;5051284;28;20199;-79
2022/09/27 07:21:58;;;;;;;4.07;1.23;;;19.90;99.90;;;;;;5035090;28;20331;-81
2022/09/27 07:24:30;;;;;;;4.38;1.30;;;19.90;99.90;;;;;;5039053;28;20194;-79
2022/09/27 07:27:02;;;;;;;2.22;1.00;;;19.90;99.90;;;;;;5067139;28;20220;-78
2022/09/27 07:29:33;;;;;;;2.75;1.10;;;19.90;99.90;;;;;;5046341;28;20201;-79
2022/09/27 07:32:05;;;;;;;2.70;1.13;;;20.00;99.90;;;;;;5050154;28;20303;-79
2022/09/27 07:34:36;;;;;;;2.08;1.20;;;19.90;99.90;;;;;;5050544;28;20212;-78
2022/09/27 07:37:07;;;;;;;3.90;1.02;;;20.00;99.90;;;;;;5049410;28;20674;-79
2022/09/27 07:39:38;;;;;;;1.20;1.10;;;19.90;99.90;;;;;;5036036;28;20200;-78
2022/09/27 07:42:11;;;;;;;3.00;1.00;;;19.90;99.90;;;;;;5044022;28;20243;-77
2022/09/27 07:44:41;;;;;;;2.95;1.65;;;19.90;99.90;;;;;;5032274;28;20213;-78
2022/09/27 07:47:12;;;;;;;1.90;1.08;;;19.90;99.90;;;;;;5051709;28;20227;-78
2022/09/27 07:49:45;;;;;;;2.22;1.20;;;19.80;99.90;;;;;;5051726;28;20201;-78
2022/09/27 07:52:16;;;;;;;3.17;1.30;;;19.80;99.90;;;;;;5043886;28;20211;-77
2022/09/27 07:54:46;;;;;;;4.82;1.20;;;19.70;99.90;;;;;;5033203;28;20236;-77
2022/09/27 07:57:23;;;;;;;3.63;1.40;;;19.60;99.90;;;;;;5040991;28;20192;-77
2022/09/27 07:59:54;;;;;;;5.00;1.30;;;19.60;99.90;;;;;;5053262;28;20200;-78
2022/09/27 08:02:25;;;;;;;2.55;1.20;;;19.60;99.90;;;;;;5036150;28;20196;-78
2022/09/27 08:04:57;;;;;;;1.65;1.20;;;19.60;99.90;;;;;;5033922;28;20225;-78
2022/09/27 08:07:28;;;;;;;1.35;1.20;;;19.50;99.90;;;;;;5049445;28;20223;-79
2022/09/27 08:09:59;;;;;;;3.08;1.20;;;19.50;99.90;;;;;;5043461;28;20197;-77
2022/09/27 08:12:32;;;;;;;4.20;1.55;;;19.50;99.90;;;;;;5036373;28;20197;-79
2022/09/27 08:15:03;;;;;;;3.67;1.70;;;19.50;99.90;;;;;;5031050;28;20563;-78
2022/09/27 08:17:34;;;;;;;3.13;1.67;;;19.40;99.90;;;;;;5041678;28;20466;-79
2022/09/27 08:20:05;;;;;;;2.63;1.45;;;19.50;99.90;;;;;;5031372;28;20251;-78
2022/09/27 08:22:41;;;;;;;1.73;1.20;;;19.50;99.90;;;;;;5030494;28;20208;-78
2022/09/27 08:25:12;;;;;;;2.25;1.70;;;19.40;99.90;;;;;;5041777;28;20246;-79
2022/09/27 08:27:45;;;;;;;1.77;1.52;;;19.40;99.90;;;;;;5052533;28;20220;-79
2022/09/27 08:30:16;;;;;;;2.70;1.33;;;19.40;99.90;;;;;;5056620;28;20260;-78
2022/09/27 08:32:50;;;;;;;2.05;1.30;;;19.30;99.90;;;;;;5052016;28;20216;-77
2022/09/27 08:35:21;;;;;;;3.13;1.27;;;19.30;99.90;;;;;;5034535;28;20605;-81
2022/09/27 08:37:59;;;;;;;1.73;1.30;;;19.40;99.90;;;;;;5049432;28;20200;-82
2022/09/27 08:40:38;;;;;;;3.05;1.33;;;19.40;99.90;;;;;;5032917;28;20204;-81
2022/09/27 08:43:21;;;;;;;2.13;1.27;;;19.30;99.90;;;;;;5041962;28;20193;-79
2022/09/27 08:46:04;;;;;;;4.15;1.40;;;19.30;99.90;;;;;;5044162;28;20201;-81
2022/09/27 08:48:39;;;;;;;3.65;1.38;;;19.30;99.90;;;;;;5049400;28;20232;-81
2022/09/27 08:51:15;;;;;;;4.40;1.75;;;19.30;99.90;;;;;;5045402;28;20203;-81
2022/09/27 08:53:52;;;;;;;3.92;1.65;;;19.30;99.90;;;;;;5047917;28;20263;-81
2022/09/27 08:56:24;;;;;;;3.72;1.75;;;19.30;99.90;;;;;;5052543;28;20266;-80
2022/09/27 08:59:07;;;;;;;6.72;1.73;;;19.30;99.90;;;;;;5045503;28;20205;-80
2022/09/27 09:01:38;;;;;;;2.70;1.50;;;19.30;99.90;;;;;;5051483;28;20220;-80
2022/09/27 09:04:13;;;;;;;2.65;1.48;;;19.30;99.90;;;;;;5046867;28;20197;-82
2022/09/27 09:06:55;;;;;;;3.67;1.60;;;19.20;99.90;;;;;;5036881;28;20220;-82
2022/09/27 09:09:38;;;;;;;3.85;1.70;;;19.20;99.90;;;;;;5047297;28;20235;-83
2022/09/27 09:15:21;;;;;;;9.77;1.70;;;19.20;99.90;;;;;;5042656;28;20212;-83
2022/09/27 09:18:04;;;;;;;3.25;1.88;;;19.30;99.90;;;;;;5052196;28;20201;-80
2022/09/27 09:20:50;;;;;;;2.92;1.05;;;19.20;99.90;;;;;;5048098;28;20271;-79
2022/09/27 09:23:42;;;;;;;3.50;1.50;;;19.20;99.90;;;;;;5046107;28;20196;-81
2022/09/27 09:26:19;;;;;;;1.98;1.20;;;19.20;99.90;;;;;;5040446;28;20204;-83
2022/09/27 09:29:05;;;;;;;2.40;1.30;;;19.20;99.90;;;;;;5046357;28;20235;-81
2022/09/27 09:31:44;;;;;;;3.28;1.30;;;19.10;99.90;;;;;;5040514;28;20196;-82
2022/09/27 09:34:20;;;;;;;1.73;1.40;;;19.10;99.90;;;;;;5045018;28;20200;-81
2022/09/27 09:36:55;;;;;;;4.25;1.50;;;19.10;99.90;;;;;;5060030;28;20289;-83
2022/09/27 09:39:30;;;;;;;4.07;1.63;;;19.20;99.90;;;;;;5051978;28;20651;-80
2022/09/27 09:42:09;;;;;;;3.35;1.30;;;19.20;99.90;;;;;;5039919;28;20200;-81
2022/09/27 09:44:53;;;;;;;2.33;1.75;;;19.20;99.90;;;;;;5034012;28;20236;-80
2022/09/27 09:47:34;;;;;;;1.40;1.27;;;19.20;99.90;;;;;;5032071;28;20213;-81
2022/09/27 09:50:16;;;;;;;3.03;1.35;;;19.20;99.90;;;;;;5035645;28;20248;-80
2022/09/27 09:52:51;;;;;;;2.85;1.50;;;19.20;99.90;;;;;;5030799;28;20205;-80
2022/09/27 09:55:25;;;;;;;2.17;1.55;;;19.20;99.90;;;;;;5033397;28;20197;-80
2022/09/27 09:58:06;;;;;;;2.45;1.50;;;19.20;99.90;;;;;;5044848;28;20196;-81
2022/09/27 10:00:36;;;;;;;3.47;1.58;;;19.10;99.90;;;;;;5040947;28;20193;-80
2022/09/27 10:03:13;;;;;;;2.60;1.50;;;19.20;99.90;;;;;;5046448;28;20193;-82
2022/09/27 10:05:50;;;;;;;2.30;1.33;;;19.10;99.90;;;;;;5053928;28;20197;-80
2022/09/27 10:08:36;;;;;;;3.30;1.80;;;19.10;99.90;;;;;;5050253;28;20232;-82
2022/09/27 10:11:12;;;;;;;2.83;1.50;;;19.10;99.90;;;;;;5051436;28;20254;-83
2022/09/27 10:14:07;;;;;;;2.80;1.60;;;19.10;99.90;;;;;;5060818;28;20220;-81
2022/09/27 10:16:59;;;;;;;2.63;1.58;;;19.10;99.90;;;;;;5051662;28;20197;-81
2022/09/27 10:19:35;;;;;;;2.45;1.60;;;19.20;99.90;;;;;;5033409;28;20193;-81
2022/09/27 10:22:17;;;;;;;2.67;1.80;;;19.10;99.90;;;;;;5038171;28;20228;-80
2022/09/27 10:25:00;;;;;;;4.10;1.63;;;19.10;99.90;;;;;;5043572;28;20201;-80
2022/09/27 10:27:48;;;;;;;3.55;1.92;;;19.00;99.90;;;;;;5040997;28;20633;-79
2022/09/27 10:33:22;;;;;;;4.60;2.20;;;19.10;99.90;;;;;;5057057;28;20223;-80
2022/09/27 10:36:04;;;;;;;2.42;1.80;;;19.00;99.90;;;;;;5062877;28;20197;-80
2022/09/27 10:38:38;;;;;;;3.80;2.30;;;19.00;99.90;;;;;;5072248;28;20193;-80
2022/09/27 10:41:43;;;;;;;6.60;2.17;;;19.00;99.90;;;;;;5070201;28;20247;-82
2022/09/27 10:44:28;;;;;;;3.15;1.77;;;19.20;99.90;;;;;;5054308;28;20276;-81
2022/09/27 10:47:25;;;;;;;6.78;2.08;;;19.10;99.90;;;;;;5073642;28;20215;-81
2022/09/27 10:50:20;;;;;;;4.25;2.13;;;19.10;99.90;;;;;;5053904;28;20213;-84
2022/09/27 10:53:05;;;;;;;3.38;1.92;;;19.20;99.90;;;;;;5038866;28;20229;-81
2022/09/27 10:55:41;;;;;;;4.72;2.10;;;19.20;99.90;;;;;;5046313;28;20204;-81
2022/09/27 10:58:21;;;;;;;4.68;2.10;;;19.20;99.90;;;;;;5047391;28;20279;-80
2022/09/27 11:01:13;;;;;;;4.68;2.70;;;19.10;99.90;;;;;;5054113;28;20204;-81
2022/09/27 11:03:55;;;;;;;5.32;2.30;;;19.20;99.90;;;;;;5045195;28;20216;-80
2022/09/27 11:06:39;;;;;;;3.70;2.00;;;19.20;99.90;;;;;;5049269;28;20211;-82
2022/09/27 11:09:25;;;;;;;8.20;2.38;;;19.10;99.90;;;;;;5053573;28;20277;-80
2022/09/27 11:12:15;;;;;;;5.38;2.42;;;19.20;99.90;;;;;;5058920;28;20227;-81
2022/09/27 11:14:50;;;;;;;5.65;2.20;;;19.20;99.90;;;;;;5049865;28;20591;-81
2022/09/27 11:17:28;;;;;;;5.10;2.10;;;19.20;99.90;;;;;;5058542;28;20223;-82
2022/09/27 11:20:35;;;;;;;4.47;2.42;;;19.20;99.90;;;;;;5053435;28;20201;-81
2022/09/27 11:26:45;;;;;;;7.90;3.22;;;19.20;99.90;;;;;;5031775;28;20288;-82
2022/09/27 11:29:29;;;;;;;7.25;2.28;;;19.20;99.90;;;;;;5062246;28;20254;-82
2022/09/27 11:32:19;;;;;;;6.43;2.30;;;19.20;99.90;;;;;;5058459;28;20224;-78
2022/09/27 11:35:14;;;;;;;5.95;2.20;;;19.20;99.90;;;;;;5047139;28;20206;-82
2022/09/27 11:37:58;;;;;;;4.70;2.30;;;19.10;99.90;;;;;;5050363;28;20300;-83
2022/09/27 11:40:44;;;;;;;6.13;2.63;;;19.00;99.90;;;;;;5061325;28;20203;-82
2022/09/27 11:43:34;;;;;;;2.92;1.73;;;18.90;99.90;;;;;;5054760;28;20197;-82
2022/09/27 11:46:17;;;;;;;4.90;1.95;;;18.90;99.90;;;;;;5061647;28;20198;-81
2022/09/27 11:58:50;;;;;;;5.47;2.28;;;18.80;99.90;;;;;;5056565;28;20259;-82
2022/09/27 12:01:35;;;;;;;3.97;2.30;;;18.70;99.90;;;;;;5057927;28;20201;-81
2022/09/27 12:04:48;;;;;;;3.28;2.05;;;18.70;99.90;;;;;;5060781;28;20284;-81
2022/09/27 12:10:16;;;;;;;5.60;2.50;;;18.80;99.90;;;;;;5072602;28;20261;-81
2022/09/27 12:12:58;;;;;;;3.58;2.38;;;18.80;99.90;;;;;;5050972;28;20572;-82
2022/09/27 12:15:41;;;;;;;4.15;2.40;;;18.80;99.90;;;;;;5044783;28;20628;-80
2022/09/27 12:18:27;;;;;;;3.30;2.22;;;18.90;99.90;;;;;;5039905;28;20664;-80
2022/09/27 12:21:04;;;;;;;4.68;2.45;;;18.80;99.90;;;;;;5041093;28;20236;-82
2022/09/27 12:23:56;;;;;;;5.72;2.55;;;18.80;99.90;;;;;;5048295;28;20243;-81
2022/09/27 12:26:34;;;;;;;4.72;2.40;;;18.70;99.90;;;;;;5045731;28;20252;-82
2022/09/27 12:29:14;;;;;;;7.13;2.58;;;18.70;99.90;;;;;;5050594;28;20380;-82
2022/09/27 12:32:18;;;;;;;4.97;2.53;;;18.70;99.90;;;;;;5044593;28;20262;-82
2022/09/27 12:34:55;;;;;;;5.03;2.55;;;18.70;99.90;;;;;;5040790;28;20203;-80
2022/09/27 12:37:37;;;;;;;5.22;2.70;;;18.70;99.90;;;;;;5046199;28;20242;-82
2022/09/27 12:40:19;;;;;;;5.18;2.60;;;18.70;99.90;;;;;;5036382;28;20206;-82
2022/09/27 12:43:03;;;;;;;5.63;2.70;;;18.80;99.90;;;;;;5058787;28;20217;-81
2022/09/27 12:45:48;;;;;;;5.90;2.72;;;18.80;99.90;;;;;;5055664;28;20201;-81
2022/09/27 12:48:39;;;;;;;5.47;2.20;;;18.80;99.90;;;;;;5026609;28;20255;-82
2022/09/27 12:51:18;;;;;;;7.93;2.67;;;18.80;99.90;;;;;;5050188;28;20192;-83
2022/09/27 12:54:07;;;;;;;7.80;2.50;;;18.80;99.90;;;;;;5047586;28;20247;-83
2022/09/27 12:57:03;;;;;;;6.97;2.38;;;18.80;99.90;;;;;;5027022;28;20236;-84
2022/09/27 13:00:08;;;;;;;7.80;2.47;;;18.80;99.90;;;;;;5028813;28;20206;-83
2022/09/27 13:03:28;;;;;;;7.75;2.60;;;18.90;99.90;;;;;;5007565;28;20276;-85
2022/09/27 13:06:50;;;;;;;5.63;2.30;;;18.90;99.90;;;;;;4983424;28;20194;-83
2022/09/27 13:10:04;;;;;;;8.27;2.40;;;18.90;99.90;;;;;;4990331;28;20212;-83
2022/09/27 13:15:36;;;;;;;4.65;2.40;;;19.00;99.90;;;;;;5018890;28;20228;-81
2022/09/27 13:18:08;;;;;;;5.38;2.00;;;19.00;99.90;;;;;;5019530;28;20297;-82
2022/09/27 13:20:48;;;;;;;5.63;2.70;;;19.00;99.90;;;;;;5030322;28;20197;-83
2022/09/27 13:24:02;;;;;;;4.70;2.30;;;19.00;99.90;;;;;;5030387;28;20201;-82
2022/09/27 13:26:48;;;;;;;7.35;2.80;;;19.00;99.90;;;;;;5025339;28;20193;-82
2022/09/27 13:29:35;;;;;;;5.68;2.80;;;19.00;99.90;;;;;;5028255;28;20227;-83
2022/09/27 13:32:21;;;;;;;5.82;2.70;;;18.90;99.90;;;;;;5014451;28;20193;-84
2022/09/27 13:34:59;;;;;;;7.78;2.97;;;18.80;99.90;;;;;;5014703;28;20213;-82
2022/09/27 13:37:53;;;;;;;7.88;2.60;;;18.50;99.90;;;;;;5039473;28;20208;-81
2022/09/27 13:40:32;;;;;;;5.38;2.58;;;18.20;99.90;;;;;;5017808;28;20233;-81
2022/09/27 13:43:40;;;;;;;5.30;2.53;;;18.20;99.90;;;;;;5030240;28;20189;-82
2022/09/27 13:46:20;;;;;;;5.53;2.83;;;18.20;99.90;;;;;;5020924;28;20208;-81
2022/09/27 13:48:57;;;;;;;5.30;2.72;;;18.10;99.90;;;;;;5027872;28;20221;-81
2022/09/27 13:51:37;;;;;;;4.57;2.60;;;18.10;99.90;;;;;;5032151;28;20276;-81
2022/09/27 13:54:51;;;;;;;5.40;2.78;;;18.10;99.90;;;;;;5026653;28;20239;-80
2022/09/27 13:57:48;;;;;;;6.75;2.50;;;18.20;99.90;;;;;;5050797;28;20200;-81
2022/09/27 14:00:22;;;;;;;6.85;2.97;;;18.20;99.90;;;;;;5059076;28;21533;-81
2022/09/27 14:03:05;;;;;;;5.07;2.75;;;18.20;99.90;;;;;;5046411;28;20331;-81
2022/09/27 14:05:40;;;;;;;4.78;2.50;;;18.20;99.90;;;;;;5042948;28;20221;-81
2022/09/27 14:08:22;;;;;;;4.65;2.42;;;18.20;99.90;;;;;;5040519;28;20192;-82
2022/09/27 14:10:56;;;;;;;4.72;2.97;;;18.30;99.90;;;;;;5045715;28;20205;-80
2022/09/27 14:13:30;;;;;;;5.60;2.88;;;18.30;99.90;;;;;;5054632;28;20201;-80